sensor_id;sensor_type;location;lat;lon;timestamp;temperature;humidity
2913;DHT22;1466;48.778;9.166;2024-03-23T00:54:18;14.50;87.40
2913;DHT22;1466;48.778;9.166;2024-03-23T00:56:44;14.50;87.40
2913;DHT22;1466;48.778;9.166;2024-03-23T00:59:09;14.40;87.30
2913;DHT22;1466;48.778;9.166;2024-03-23T01:01:35;14.40;87.80
2913;DHT22;1466;48.778;9.166;2024-03-23T01:04:01;14.40;87.40
2913;DHT22;1466;48.778;9.166;2024-03-23T01:06:28;14.50;87.60
2913;DHT22;1466;48.778;9.166;2024-03-23T01:08:53;14.50;87.50
2913;DHT22;1466;48.778;9.166;2024-03-23T01:11:19;14.50;87.60
2913;DHT22;1466;48.778;9.166;2024-03-23T01:13:44;14.50;87.60
2913;DHT22;1466;48.778;9.166;2024-03-23T01:16:10;14.60;87.70
2913;DHT22;1466;48.778;9.166;2024-03-23T01:18:35;14.60;87.70
2913;DHT22;1466;48.778;9.166;2024-03-23T01:21:01;14.60;87.60
2913;DHT22;1466;48.778;9.166;2024-03-23T01:23:26;14.60;87.70
2913;DHT22;1466;48.778;9.166;2024-03-23T01:25:55;14.70;87.70
2913;DHT22;1466;48.778;9.166;2024-03-23T01:28:21;14.70;87.90
2913;DHT22;1466;48.778;9.166;2024-03-23T01:30:47;14.70;87.80
2913;DHT22;1466;48.778;9.166;2024-03-23T01:33:13;14.70;88.60
2913;DHT22;1466;48.778;9.166;2024-03-23T01:35:39;14.70;87.90
2913;DHT22;1466;48.778;9.166;2024-03-23T01:38:04;14.70;87.90
2913;DHT22;1466;48.778;9.166;2024-03-23T01:40:30;14.80;88.00
2913;DHT22;1466;48.778;9.166;2024-03-23T01:43:06;14.80;88.00
2913;DHT22;1466;48.778;9.166;2024-03-23T01:45:33;14.80;87.80
2913;DHT22;1466;48.778;9.166;2024-03-23T01:47:59;14.80;87.90
2913;DHT22;1466;48.778;9.166;2024-03-23T01:50:26;14.80;87.80
2913;DHT22;1466;48.778;9.166;2024-03-23T01:52:52;14.80;88.00
2913;DHT22;1466;48.778;9.166;2024-03-23T01:55:18;14.80;88.70
2913;DHT22;1466;48.778;9.166;2024-03-23T01:57:44;14.90;88.00
2913;DHT22;1466;48.778;9.166;2024-03-23T02:00:10;14.80;88.00
2913;DHT22;1466;48.778;9.166;2024-03-23T02:02:42;14.80;88.00
2913;DHT22;1466;48.778;9.166;2024-03-23T02:05:07;14.80;88.10
2913;DHT22;1466;48.778;9.166;2024-03-23T02:07:33;14.80;88.20
2913;DHT22;1466;48.778;9.166;2024-03-23T02:10:00;14.80;88.30
2913;DHT22;1466;48.778;9.166;2024-03-23T02:12:26;14.80;88.50
2913;DHT22;1466;48.778;9.166;2024-03-23T02:14:52;14.80;88.60
2913;DHT22;1466;48.778;9.166;2024-03-23T02:17:17;14.80;88.80
2913;DHT22;1466;48.778;9.166;2024-03-23T02:19:43;14.70;88.90
2913;DHT22;1466;48.778;9.166;2024-03-23T02:22:08;14.70;89.30
2913;DHT22;1466;48.778;9.166;2024-03-23T02:24:36;14.60;89.50
2913;DHT22;1466;48.778;9.166;2024-03-23T02:27:02;14.60;89.80
2913;DHT22;1466;48.778;9.166;2024-03-23T02:29:28;14.60;89.80
2913;DHT22;1466;48.778;9.166;2024-03-23T02:31:53;14.60;90.00
2913;DHT22;1466;48.778;9.166;2024-03-23T02:34:19;14.60;90.00
2913;DHT22;1466;48.778;9.166;2024-03-23T02:36:45;14.60;90.00
2913;DHT22;1466;48.778;9.166;2024-03-23T02:39:10;14.70;90.20
2913;DHT22;1466;48.778;9.166;2024-03-23T02:41:37;14.60;90.20
2913;DHT22;1466;48.778;9.166;2024-03-23T02:44:02;14.60;90.30
2913;DHT22;1466;48.778;9.166;2024-03-23T02:46:28;14.60;90.40
2913;DHT22;1466;48.778;9.166;2024-03-23T02:48:53;14.60;90.40
2913;DHT22;1466;48.778;9.166;2024-03-23T02:51:19;14.60;90.40
2913;DHT22;1466;48.778;9.166;2024-03-23T02:53:44;14.60;90.60
2913;DHT22;1466;48.778;9.166;2024-03-23T02:56:10;14.60;90.60
2913;DHT22;1466;48.778;9.166;2024-03-23T02:58:41;14.60;90.70
2913;DHT22;1466;48.778;9.166;2024-03-23T03:01:07;14.60;90.80
2913;DHT22;1466;48.778;9.166;2024-03-23T03:03:32;14.60;90.90
2913;DHT22;1466;48.778;9.166;2024-03-23T03:05:58;14.50;91.00
2913;DHT22;1466;48.778;9.166;2024-03-23T03:08:23;14.60;91.10
2913;DHT22;1466;48.778;9.166;2024-03-23T03:10:49;14.60;91.10
2913;DHT22;1466;48.778;9.166;2024-03-23T03:13:14;14.60;91.30
2913;DHT22;1466;48.778;9.166;2024-03-23T03:15:42;14.60;91.30
2913;DHT22;1466;48.778;9.166;2024-03-23T03:18:08;14.60;91.30
2913;DHT22;1466;48.778;9.166;2024-03-23T03:20:33;14.60;91.40
2913;DHT22;1466;48.778;9.166;2024-03-23T03:23:00;14.60;91.40
2913;DHT22;1466;48.778;9.166;2024-03-23T03:25:25;14.60;91.40
2913;DHT22;1466;48.778;9.166;2024-03-23T03:27:51;14.60;91.50
2913;DHT22;1466;48.778;9.166;2024-03-23T03:30:16;14.60;91.60
2913;DHT22;1466;48.778;9.166;2024-03-23T03:32:42;14.60;91.80
2913;DHT22;1466;48.778;9.166;2024-03-23T03:35:08;14.50;91.80
2913;DHT22;1466;48.778;9.166;2024-03-23T03:37:34;14.50;91.90
2913;DHT22;1466;48.778;9.166;2024-03-23T03:39:59;14.50;92.00
2913;DHT22;1466;48.778;9.166;2024-03-23T03:42:25;14.50;92.10
2913;DHT22;1466;48.778;9.166;2024-03-23T03:44:51;14.40;92.10
2913;DHT22;1466;48.778;9.166;2024-03-23T03:47:17;14.40;92.20
2913;DHT22;1466;48.778;9.166;2024-03-23T03:49:43;14.40;92.20
2913;DHT22;1466;48.778;9.166;2024-03-23T03:52:09;14.40;92.30
2913;DHT22;1466;48.778;9.166;2024-03-23T03:54:34;14.40;92.30
2913;DHT22;1466;48.778;9.166;2024-03-23T03:57:00;14.30;92.40
2913;DHT22;1466;48.778;9.166;2024-03-23T03:59:26;14.30;92.50
2913;DHT22;1466;48.778;9.166;2024-03-23T04:01:51;14.30;92.50
2913;DHT22;1466;48.778;9.166;2024-03-23T04:04:17;14.30;92.90
2913;DHT22;1466;48.778;9.166;2024-03-23T04:06:43;14.30;92.60
2913;DHT22;1466;48.778;9.166;2024-03-23T04:09:09;14.30;92.60
2913;DHT22;1466;48.778;9.166;2024-03-23T04:11:35;14.30;92.70
2913;DHT22;1466;48.778;9.166;2024-03-23T04:14:01;14.30;92.70
2913;DHT22;1466;48.778;9.166;2024-03-23T04:16:35;14.30;92.70
2913;DHT22;1466;48.778;9.166;2024-03-23T04:19:00;14.30;92.80
2913;DHT22;1466;48.778;9.166;2024-03-23T04:21:26;14.30;92.80
2913;DHT22;1466;48.778;9.166;2024-03-23T04:23:51;14.30;92.80
2913;DHT22;1466;48.778;9.166;2024-03-23T04:26:17;14.40;93.30
2913;DHT22;1466;48.778;9.166;2024-03-23T04:28:43;14.40;92.90
2913;DHT22;1466;48.778;9.166;2024-03-23T04:31:09;14.40;92.90
2913;DHT22;1466;48.778;9.166;2024-03-23T04:33:35;14.30;93.00
2913;DHT22;1466;48.778;9.166;2024-03-23T04:36:00;14.30;93.40
2913;DHT22;1466;48.778;9.166;2024-03-23T04:38:26;14.30;93.60
2913;DHT22;1466;48.778;9.166;2024-03-23T04:40:56;14.20;93.90
2913;DHT22;1466;48.778;9.166;2024-03-23T04:43:22;14.00;94.70
2913;DHT22;1466;48.778;9.166;2024-03-23T04:45:47;13.90;96.00
2913;DHT22;1466;48.778;9.166;2024-03-23T04:48:13;13.80;96.70
2913;DHT22;1466;48.778;9.166;2024-03-23T04:50:38;13.70;97.90
2913;DHT22;1466;48.778;9.166;2024-03-23T04:53:04;13.60;98.80
2913;DHT22;1466;48.778;9.166;2024-03-23T04:55:30;13.50;99.50
2913;DHT22;1466;48.778;9.166;2024-03-23T04:57:56;13.40;99.90
2913;DHT22;1466;48.778;9.166;2024-03-23T05:00:21;13.40;99.90
2913;DHT22;1466;48.778;9.166;2024-03-23T05:02:49;13.30;99.90
2913;DHT22;1466;48.778;9.166;2024-03-23T05:05:14;13.30;99.90
2913;DHT22;1466;48.778;9.166;2024-03-23T05:07:40;13.30;99.90
2913;DHT22;1466;48.778;9.166;2024-03-23T05:10:08;13.20;99.90
2913;DHT22;1466;48.778;9.166;2024-03-23T05:12:39;13.20;99.90
2913;DHT22;1466;48.778;9.166;2024-03-23T05:15:06;13.10;99.90
2913;DHT22;1466;48.778;9.166;2024-03-23T05:17:32;13.00;99.90
2913;DHT22;1466;48.778;9.166;2024-03-23T05:19:58;12.90;99.90
2913;DHT22;1466;48.778;9.166;2024-03-23T05:22:24;12.90;99.90
2913;DHT22;1466;48.778;9.166;2024-03-23T05:24:49;12.80;99.90
2913;DHT22;1466;48.778;9.166;2024-03-23T05:27:15;12.80;99.90
2913;DHT22;1466;48.778;9.166;2024-03-23T05:29:40;12.70;99.90
2913;DHT22;1466;48.778;9.166;2024-03-23T05:32:06;12.60;99.90
2913;DHT22;1466;48.778;9.166;2024-03-23T05:34:32;12.70;99.90
2913;DHT22;1466;48.778;9.166;2024-03-23T05:36:57;12.60;99.90
2913;DHT22;1466;48.778;9.166;2024-03-23T05:39:23;12.50;99.90
2913;DHT22;1466;48.778;9.166;2024-03-23T05:41:49;12.50;99.90
2913;DHT22;1466;48.778;9.166;2024-03-23T05:44:15;12.50;99.90
2913;DHT22;1466;48.778;9.166;2024-03-23T05:46:41;12.50;99.90
2913;DHT22;1466;48.778;9.166;2024-03-23T05:49:07;12.50;99.90
2913;DHT22;1466;48.778;9.166;2024-03-23T05:51:32;12.40;99.90
2913;DHT22;1466;48.778;9.166;2024-03-23T05:53:58;12.50;99.90
2913;DHT22;1466;48.778;9.166;2024-03-23T05:56:24;12.30;99.90
2913;DHT22;1466;48.778;9.166;2024-03-23T05:58:51;12.10;99.90
2913;DHT22;1466;48.778;9.166;2024-03-23T06:01:17;11.90;99.90
2913;DHT22;1466;48.778;9.166;2024-03-23T06:03:43;11.70;99.90
2913;DHT22;1466;48.778;9.166;2024-03-23T06:06:10;11.70;99.90
2913;DHT22;1466;48.778;9.166;2024-03-23T06:08:37;11.60;99.90
2913;DHT22;1466;48.778;9.166;2024-03-23T06:11:04;11.70;99.90
2913;DHT22;1466;48.778;9.166;2024-03-23T06:13:31;11.80;99.90
2913;DHT22;1466;48.778;9.166;2024-03-23T06:16:03;11.80;99.90
2913;DHT22;1466;48.778;9.166;2024-03-23T06:18:29;11.80;99.90
2913;DHT22;1466;48.778;9.166;2024-03-23T06:20:55;11.90;99.90
2913;DHT22;1466;48.778;9.166;2024-03-23T06:23:20;11.80;99.90
2913;DHT22;1466;48.778;9.166;2024-03-23T06:25:46;11.80;99.90
2913;DHT22;1466;48.778;9.166;2024-03-23T06:28:12;11.80;99.90
2913;DHT22;1466;48.778;9.166;2024-03-23T06:30:37;11.70;99.90
2913;DHT22;1466;48.778;9.166;2024-03-23T06:33:03;11.70;99.90
2913;DHT22;1466;48.778;9.166;2024-03-23T06:35:29;11.80;99.90
2913;DHT22;1466;48.778;9.166;2024-03-23T06:37:54;11.80;99.90
2913;DHT22;1466;48.778;9.166;2024-03-23T06:40:20;11.80;99.90
2913;DHT22;1466;48.778;9.166;2024-03-23T06:42:45;11.80;99.90
2913;DHT22;1466;48.778;9.166;2024-03-23T06:45:11;11.80;99.90
2913;DHT22;1466;48.778;9.166;2024-03-23T06:47:36;11.80;99.90
2913;DHT22;1466;48.778;9.166;2024-03-23T06:50:03;11.70;99.90
2913;DHT22;1466;48.778;9.166;2024-03-23T06:52:30;11.70;99.90
2913;DHT22;1466;48.778;9.166;2024-03-23T06:54:55;11.70;99.90
2913;DHT22;1466;48.778;9.166;2024-03-23T06:57:21;11.60;99.90
2913;DHT22;1466;48.778;9.166;2024-03-23T06:59:47;11.60;99.90
2913;DHT22;1466;48.778;9.166;2024-03-23T07:02:13;11.60;99.90
2913;DHT22;1466;48.778;9.166;2024-03-23T07:04:38;11.60;99.90
2913;DHT22;1466;48.778;9.166;2024-03-23T07:07:07;11.50;99.90
2913;DHT22;1466;48.778;9.166;2024-03-23T07:09:33;11.60;99.90
2913;DHT22;1466;48.778;9.166;2024-03-23T07:11:58;11.70;99.90
2913;DHT22;1466;48.778;9.166;2024-03-23T07:14:24;11.60;99.90
2913;DHT22;1466;48.778;9.166;2024-03-23T07:16:50;11.60;99.90
2913;DHT22;1466;48.778;9.166;2024-03-23T07:19:16;11.60;99.90
2913;DHT22;1466;48.778;9.166;2024-03-23T07:21:45;11.60;99.90
2913;DHT22;1466;48.778;9.166;2024-03-23T07:24:11;11.60;99.90
2913;DHT22;1466;48.778;9.166;2024-03-23T07:26:37;11.50;99.90
2913;DHT22;1466;48.778;9.166;2024-03-23T07:29:07;11.60;99.90
2913;DHT22;1466;48.778;9.166;2024-03-23T07:31:32;11.60;99.90
2913;DHT22;1466;48.778;9.166;2024-03-23T07:33:58;11.50;99.90
2913;DHT22;1466;48.778;9.166;2024-03-23T07:36:24;11.60;99.90
2913;DHT22;1466;48.778;9.166;2024-03-23T07:38:50;11.50;99.90
2913;DHT22;1466;48.778;9.166;2024-03-23T07:41:20;11.40;99.90
2913;DHT22;1466;48.778;9.166;2024-03-23T07:43:47;11.30;99.90
2913;DHT22;1466;48.778;9.166;2024-03-23T07:46:14;11.30;99.90
2913;DHT22;1466;48.778;9.166;2024-03-23T07:48:40;11.40;99.90
2913;DHT22;1466;48.778;9.166;2024-03-23T07:51:10;11.50;99.90
2913;DHT22;1466;48.778;9.166;2024-03-23T07:53:36;11.40;99.90
2913;DHT22;1466;48.778;9.166;2024-03-23T07:56:05;11.40;99.90
2913;DHT22;1466;48.778;9.166;2024-03-23T07:58:31;11.20;99.90
2913;DHT22;1466;48.778;9.166;2024-03-23T08:01:04;10.70;99.90
2913;DHT22;1466;48.778;9.166;2024-03-23T08:03:30;10.30;99.90
2913;DHT22;1466;48.778;9.166;2024-03-23T08:05:55;10.30;99.90
2913;DHT22;1466;48.778;9.166;2024-03-23T08:08:21;10.30;99.90
2913;DHT22;1466;48.778;9.166;2024-03-23T08:10:50;10.30;99.90
2913;DHT22;1466;48.778;9.166;2024-03-23T08:13:16;10.20;99.90
2913;DHT22;1466;48.778;9.166;2024-03-23T08:15:42;10.30;99.90
2913;DHT22;1466;48.778;9.166;2024-03-23T08:18:08;10.30;99.90
2913;DHT22;1466;48.778;9.166;2024-03-23T08:20:34;10.40;99.90
2913;DHT22;1466;48.778;9.166;2024-03-23T08:22:59;10.50;99.90
2913;DHT22;1466;48.778;9.166;2024-03-23T08:25:25;10.60;99.90
2913;DHT22;1466;48.778;9.166;2024-03-23T08:27:50;10.60;99.90
2913;DHT22;1466;48.778;9.166;2024-03-23T08:30:16;10.80;99.90
2913;DHT22;1466;48.778;9.166;2024-03-23T08:32:42;10.90;99.90
2913;DHT22;1466;48.778;9.166;2024-03-23T08:35:08;10.90;99.90
2913;DHT22;1466;48.778;9.166;2024-03-23T08:37:34;10.80;99.90
2913;DHT22;1466;48.778;9.166;2024-03-23T08:39:59;10.90;99.90
2913;DHT22;1466;48.778;9.166;2024-03-23T08:42:25;10.80;99.90
2913;DHT22;1466;48.778;9.166;2024-03-23T08:44:51;10.70;99.90
2913;DHT22;1466;48.778;9.166;2024-03-23T08:47:16;10.70;99.90
2913;DHT22;1466;48.778;9.166;2024-03-23T08:49:43;10.70;99.90
2913;DHT22;1466;48.778;9.166;2024-03-23T08:52:09;10.80;99.90
2913;DHT22;1466;48.778;9.166;2024-03-23T08:54:35;11.10;99.90
2913;DHT22;1466;48.778;9.166;2024-03-23T08:57:00;11.20;99.90
2913;DHT22;1466;48.778;9.166;2024-03-23T08:59:26;11.40;99.90
2913;DHT22;1466;48.778;9.166;2024-03-23T09:01:52;11.50;99.90
2913;DHT22;1466;48.778;9.166;2024-03-23T09:04:18;11.60;99.90
2913;DHT22;1466;48.778;9.166;2024-03-23T09:06:44;11.60;99.90
2913;DHT22;1466;48.778;9.166;2024-03-23T09:09:09;11.50;99.90
2913;DHT22;1466;48.778;9.166;2024-03-23T09:11:35;11.50;99.90
2913;DHT22;1466;48.778;9.166;2024-03-23T09:14:01;11.40;99.90
2913;DHT22;1466;48.778;9.166;2024-03-23T09:16:26;11.30;99.90
2913;DHT22;1466;48.778;9.166;2024-03-23T09:18:52;11.30;99.90
2913;DHT22;1466;48.778;9.166;2024-03-23T09:21:18;11.40;99.60
2913;DHT22;1466;48.778;9.166;2024-03-23T09:23:44;11.50;99.30
2913;DHT22;1466;48.778;9.166;2024-03-23T09:26:10;11.60;98.20
2913;DHT22;1466;48.778;9.166;2024-03-23T09:28:35;11.60;97.10
2913;DHT22;1466;48.778;9.166;2024-03-23T09:31:07;11.70;96.40
2913;DHT22;1466;48.778;9.166;2024-03-23T09:33:34;11.80;95.80
2913;DHT22;1466;48.778;9.166;2024-03-23T09:36:04;11.80;95.70
2913;DHT22;1466;48.778;9.166;2024-03-23T09:38:30;12.00;95.40
2913;DHT22;1466;48.778;9.166;2024-03-23T09:40:56;12.30;94.70
2913;DHT22;1466;48.778;9.166;2024-03-23T09:43:22;12.30;93.50
2913;DHT22;1466;48.778;9.166;2024-03-23T09:45:49;12.40;92.80
2913;DHT22;1466;48.778;9.166;2024-03-23T09:48:15;12.30;91.60
2913;DHT22;1466;48.778;9.166;2024-03-23T09:50:42;12.10;90.90
2913;DHT22;1466;48.778;9.166;2024-03-23T09:53:09;12.10;91.10
2913;DHT22;1466;48.778;9.166;2024-03-23T09:55:35;12.10;90.60
2913;DHT22;1466;48.778;9.166;2024-03-23T09:58:02;12.10;90.30
2913;DHT22;1466;48.778;9.166;2024-03-23T10:00:27;12.10;90.30
2913;DHT22;1466;48.778;9.166;2024-03-23T10:02:55;12.20;89.20
2913;DHT22;1466;48.778;9.166;2024-03-23T10:05:22;12.10;86.50
2913;DHT22;1466;48.778;9.166;2024-03-23T10:07:49;12.00;87.00
2913;DHT22;1466;48.778;9.166;2024-03-23T10:10:16;11.90;86.30
2913;DHT22;1466;48.778;9.166;2024-03-23T10:12:48;11.90;86.40
2913;DHT22;1466;48.778;9.166;2024-03-23T10:15:21;12.00;86.60
2913;DHT22;1466;48.778;9.166;2024-03-23T10:17:48;12.10;86.90
2913;DHT22;1466;48.778;9.166;2024-03-23T10:20:18;12.10;87.50
2913;DHT22;1466;48.778;9.166;2024-03-23T10:22:44;11.90;86.60
2913;DHT22;1466;48.778;9.166;2024-03-23T10:25:11;11.90;87.80
2913;DHT22;1466;48.778;9.166;2024-03-23T10:27:37;12.00;88.60
2913;DHT22;1466;48.778;9.166;2024-03-23T10:30:13;12.10;88.90
2913;DHT22;1466;48.778;9.166;2024-03-23T10:32:42;12.40;89.00
2913;DHT22;1466;48.778;9.166;2024-03-23T10:35:18;12.40;88.70
2913;DHT22;1466;48.778;9.166;2024-03-23T10:37:45;12.30;86.90
2913;DHT22;1466;48.778;9.166;2024-03-23T10:40:13;12.20;86.70
2913;DHT22;1466;48.778;9.166;2024-03-23T10:42:39;12.20;85.80
2913;DHT22;1466;48.778;9.166;2024-03-23T10:45:06;12.10;85.10
2913;DHT22;1466;48.778;9.166;2024-03-23T10:47:34;12.00;85.00
2913;DHT22;1466;48.778;9.166;2024-03-23T10:49:59;12.00;85.30
2913;DHT22;1466;48.778;9.166;2024-03-23T10:52:25;11.70;87.30
2913;DHT22;1466;48.778;9.166;2024-03-23T10:54:55;11.60;89.40
2913;DHT22;1466;48.778;9.166;2024-03-23T10:57:27;11.30;91.30
2913;DHT22;1466;48.778;9.166;2024-03-23T10:59:55;10.70;93.50
2913;DHT22;1466;48.778;9.166;2024-03-23T11:02:22;10.30;95.30
2913;DHT22;1466;48.778;9.166;2024-03-23T11:04:47;9.70;97.30
2913;DHT22;1466;48.778;9.166;2024-03-23T11:09:54;9.20;99.90
2913;DHT22;1466;48.778;9.166;2024-03-23T11:17:27;9.10;99.90
2913;DHT22;1466;48.778;9.166;2024-03-23T11:20:03;9.40;99.90
2913;DHT22;1466;48.778;9.166;2024-03-23T11:22:44;9.60;99.90
2913;DHT22;1466;48.778;9.166;2024-03-23T11:25:18;9.90;99.90
2913;DHT22;1466;48.778;9.166;2024-03-23T11:27:47;9.90;99.90
2913;DHT22;1466;48.778;9.166;2024-03-23T11:32:39;10.30;99.90
2913;DHT22;1466;48.778;9.166;2024-03-23T11:35:05;10.40;99.90
2913;DHT22;1466;48.778;9.166;2024-03-23T11:37:31;10.40;99.90
2913;DHT22;1466;48.778;9.166;2024-03-23T11:39:57;10.50;99.90
2913;DHT22;1466;48.778;9.166;2024-03-23T11:42:23;10.70;99.90
2913;DHT22;1466;48.778;9.166;2024-03-23T11:44:48;10.80;99.40
2913;DHT22;1466;48.778;9.166;2024-03-23T11:47:14;11.10;99.60
2913;DHT22;1466;48.778;9.166;2024-03-23T11:49:39;11.40;98.80
2913;DHT22;1466;48.778;9.166;2024-03-23T11:52:08;11.60;98.20
2913;DHT22;1466;48.778;9.166;2024-03-23T11:54:44;11.60;96.40
2913;DHT22;1466;48.778;9.166;2024-03-23T11:57:09;11.70;95.50
2913;DHT22;1466;48.778;9.166;2024-03-23T12:02:12;11.60;93.60
2913;DHT22;1466;48.778;9.166;2024-03-23T12:04:41;11.70;93.20
2913;DHT22;1466;48.778;9.166;2024-03-23T12:07:15;11.80;93.50
2913;DHT22;1466;48.778;9.166;2024-03-23T12:09:41;11.80;92.60
2913;DHT22;1466;48.778;9.166;2024-03-23T12:12:17;11.80;92.60
2913;DHT22;1466;48.778;9.166;2024-03-23T12:14:44;11.70;91.20
2913;DHT22;1466;48.778;9.166;2024-03-23T12:19:36;11.50;90.80
2913;DHT22;1466;48.778;9.166;2024-03-23T12:22:06;11.60;90.90
2913;DHT22;1466;48.778;9.166;2024-03-23T12:24:32;11.60;90.40
2913;DHT22;1466;48.778;9.166;2024-03-23T12:27:02;11.70;90.30
2913;DHT22;1466;48.778;9.166;2024-03-23T12:29:29;11.60;88.00
2913;DHT22;1466;48.778;9.166;2024-03-23T12:31:54;11.60;88.70
2913;DHT22;1466;48.778;9.166;2024-03-23T12:34:21;11.90;88.80
2913;DHT22;1466;48.778;9.166;2024-03-23T12:36:47;11.90;87.60
2913;DHT22;1466;48.778;9.166;2024-03-23T12:39:12;12.20;88.10
2913;DHT22;1466;48.778;9.166;2024-03-23T12:41:38;12.40;87.70
2913;DHT22;1466;48.778;9.166;2024-03-23T12:44:03;12.40;87.10
2913;DHT22;1466;48.778;9.166;2024-03-23T12:46:29;12.40;85.20
2913;DHT22;1466;48.778;9.166;2024-03-23T12:48:54;12.30;86.10
2913;DHT22;1466;48.778;9.166;2024-03-23T12:51:20;12.30;85.70
2913;DHT22;1466;48.778;9.166;2024-03-23T12:53:46;12.20;85.60
2913;DHT22;1466;48.778;9.166;2024-03-23T12:56:12;12.10;85.30
2913;DHT22;1466;48.778;9.166;2024-03-23T12:58:37;12.00;86.20
2913;DHT22;1466;48.778;9.166;2024-03-23T13:01:03;12.10;86.90
2913;DHT22;1466;48.778;9.166;2024-03-23T13:03:29;12.20;86.40
2913;DHT22;1466;48.778;9.166;2024-03-23T13:05:54;12.30;86.40
2913;DHT22;1466;48.778;9.166;2024-03-23T13:08:20;12.40;85.20
2913;DHT22;1466;48.778;9.166;2024-03-23T13:10:45;12.40;85.20
2913;DHT22;1466;48.778;9.166;2024-03-23T13:13:12;12.50;86.00
2913;DHT22;1466;48.778;9.166;2024-03-23T13:15:38;12.40;85.70
2913;DHT22;1466;48.778;9.166;2024-03-23T13:18:03;12.40;86.00
2913;DHT22;1466;48.778;9.166;2024-03-23T13:20:29;12.60;86.80
2913;DHT22;1466;48.778;9.166;2024-03-23T13:22:54;12.80;86.30
2913;DHT22;1466;48.778;9.166;2024-03-23T13:25:20;12.70;84.20
2913;DHT22;1466;48.778;9.166;2024-03-23T13:27:46;12.70;84.10
2913;DHT22;1466;48.778;9.166;2024-03-23T13:30:12;12.50;83.20
2913;DHT22;1466;48.778;9.166;2024-03-23T13:32:37;12.40;83.90
2913;DHT22;1466;48.778;9.166;2024-03-23T13:35:03;12.40;81.90
2913;DHT22;1466;48.778;9.166;2024-03-23T13:37:29;12.40;81.30
2913;DHT22;1466;48.778;9.166;2024-03-23T13:39:54;12.40;80.80
2913;DHT22;1466;48.778;9.166;2024-03-23T13:42:20;12.40;80.10
2913;DHT22;1466;48.778;9.166;2024-03-23T13:44:45;12.50;77.10
2913;DHT22;1466;48.778;9.166;2024-03-23T13:47:11;12.50;74.70
2913;DHT22;1466;48.778;9.166;2024-03-23T13:49:36;12.50;73.90
2913;DHT22;1466;48.778;9.166;2024-03-23T13:52:02;12.60;73.80
2913;DHT22;1466;48.778;9.166;2024-03-23T13:54:28;12.70;73.30
2913;DHT22;1466;48.778;9.166;2024-03-23T13:56:55;12.70;73.20
2913;DHT22;1466;48.778;9.166;2024-03-23T13:59:21;12.90;72.80
2913;DHT22;1466;48.778;9.166;2024-03-23T14:01:48;12.90;72.40
2913;DHT22;1466;48.778;9.166;2024-03-23T14:04:14;12.70;73.30
2913;DHT22;1466;48.778;9.166;2024-03-23T14:06:42;12.60;73.20
2913;DHT22;1466;48.778;9.166;2024-03-23T14:09:10;12.30;74.60
2913;DHT22;1466;48.778;9.166;2024-03-23T14:11:36;11.70;82.10
2913;DHT22;1466;48.778;9.166;2024-03-23T14:14:03;11.00;89.10
2913;DHT22;1466;48.778;9.166;2024-03-23T14:16:30;10.20;92.50
2913;DHT22;1466;48.778;9.166;2024-03-23T14:18:56;9.70;95.70
2913;DHT22;1466;48.778;9.166;2024-03-23T14:21:21;9.30;98.30
2913;DHT22;1466;48.778;9.166;2024-03-23T14:23:47;8.90;99.90
2913;DHT22;1466;48.778;9.166;2024-03-23T14:26:13;8.60;99.90
2913;DHT22;1466;48.778;9.166;2024-03-23T14:28:38;8.40;99.90
2913;DHT22;1466;48.778;9.166;2024-03-23T14:31:04;8.40;99.90
2913;DHT22;1466;48.778;9.166;2024-03-23T14:33:39;8.70;99.90
2913;DHT22;1466;48.778;9.166;2024-03-23T14:36:11;9.00;99.90
2913;DHT22;1466;48.778;9.166;2024-03-23T14:38:36;9.10;99.90
2913;DHT22;1466;48.778;9.166;2024-03-23T14:41:02;9.20;99.90
2913;DHT22;1466;48.778;9.166;2024-03-23T14:43:29;9.30;99.90
2913;DHT22;1466;48.778;9.166;2024-03-23T14:46:14;9.50;99.90
2913;DHT22;1466;48.778;9.166;2024-03-23T14:48:42;9.70;99.90
2913;DHT22;1466;48.778;9.166;2024-03-23T14:51:09;9.70;99.90
2913;DHT22;1466;48.778;9.166;2024-03-23T14:53:39;9.70;99.90
2913;DHT22;1466;48.778;9.166;2024-03-23T14:56:08;9.70;99.90
2913;DHT22;1466;48.778;9.166;2024-03-23T14:58:37;9.70;99.90
2913;DHT22;1466;48.778;9.166;2024-03-23T15:01:04;9.70;99.90
2913;DHT22;1466;48.778;9.166;2024-03-23T15:03:29;9.60;99.70
2913;DHT22;1466;48.778;9.166;2024-03-23T15:05:56;9.50;99.10
2913;DHT22;1466;48.778;9.166;2024-03-23T15:08:22;9.60;98.60
2913;DHT22;1466;48.778;9.166;2024-03-23T15:10:48;9.70;98.50
2913;DHT22;1466;48.778;9.166;2024-03-23T15:13:14;9.80;97.70
2913;DHT22;1466;48.778;9.166;2024-03-23T15:15:43;9.90;96.80
2913;DHT22;1466;48.778;9.166;2024-03-23T15:18:11;10.00;96.90
2913;DHT22;1466;48.778;9.166;2024-03-23T15:20:38;10.20;97.30
2913;DHT22;1466;48.778;9.166;2024-03-23T15:23:04;10.20;97.10
2913;DHT22;1466;48.778;9.166;2024-03-23T15:25:30;10.40;97.20
2913;DHT22;1466;48.778;9.166;2024-03-23T15:27:56;10.50;96.10
2913;DHT22;1466;48.778;9.166;2024-03-23T15:30:23;10.50;95.80
2913;DHT22;1466;48.778;9.166;2024-03-23T15:32:49;10.60;95.90
2913;DHT22;1466;48.778;9.166;2024-03-23T15:35:14;10.80;95.50
2913;DHT22;1466;48.778;9.166;2024-03-23T15:37:40;10.80;95.20
2913;DHT22;1466;48.778;9.166;2024-03-23T15:40:07;10.80;94.70
2913;DHT22;1466;48.778;9.166;2024-03-23T15:42:32;10.80;94.20
2913;DHT22;1466;48.778;9.166;2024-03-23T15:44:58;10.70;92.90
2913;DHT22;1466;48.778;9.166;2024-03-23T15:47:24;10.60;92.70
2913;DHT22;1466;48.778;9.166;2024-03-23T15:49:50;10.60;92.90
2913;DHT22;1466;48.778;9.166;2024-03-23T15:52:19;10.60;92.00
2913;DHT22;1466;48.778;9.166;2024-03-23T15:54:44;10.50;92.20
2913;DHT22;1466;48.778;9.166;2024-03-23T15:57:10;10.60;92.70
2913;DHT22;1466;48.778;9.166;2024-03-23T15:59:35;10.60;92.80
2913;DHT22;1466;48.778;9.166;2024-03-23T16:02:04;10.60;92.40
2913;DHT22;1466;48.778;9.166;2024-03-23T16:04:29;10.60;92.40
2913;DHT22;1466;48.778;9.166;2024-03-23T16:06:55;10.60;92.40
2913;DHT22;1466;48.778;9.166;2024-03-23T16:09:20;10.70;92.60
2913;DHT22;1466;48.778;9.166;2024-03-23T16:11:46;10.80;92.70
2913;DHT22;1466;48.778;9.166;2024-03-23T16:14:12;10.80;92.70
2913;DHT22;1466;48.778;9.166;2024-03-23T16:16:37;10.80;93.00
2913;DHT22;1466;48.778;9.166;2024-03-23T16:19:03;10.70;92.90
2913;DHT22;1466;48.778;9.166;2024-03-23T16:21:28;10.70;93.00
2913;DHT22;1466;48.778;9.166;2024-03-23T16:23:54;10.60;93.00
2913;DHT22;1466;48.778;9.166;2024-03-23T16:26:19;10.50;92.50
2913;DHT22;1466;48.778;9.166;2024-03-23T16:28:45;10.40;92.10
2913;DHT22;1466;48.778;9.166;2024-03-23T16:31:13;10.30;92.10
2913;DHT22;1466;48.778;9.166;2024-03-23T16:33:39;10.20;92.10
2913;DHT22;1466;48.778;9.166;2024-03-23T16:36:07;10.20;92.30
2913;DHT22;1466;48.778;9.166;2024-03-23T16:38:34;10.20;92.40
2913;DHT22;1466;48.778;9.166;2024-03-23T16:41:04;10.20;92.50
2913;DHT22;1466;48.778;9.166;2024-03-23T16:43:33;10.30;92.60
2913;DHT22;1466;48.778;9.166;2024-03-23T16:48:27;10.30;92.60
2913;DHT22;1466;48.778;9.166;2024-03-23T16:50:53;10.30;93.10
2913;DHT22;1466;48.778;9.166;2024-03-23T16:53:21;10.10;94.60
2913;DHT22;1466;48.778;9.166;2024-03-23T16:55:47;9.90;96.50
2913;DHT22;1466;48.778;9.166;2024-03-23T16:58:19;9.70;97.80
2913;DHT22;1466;48.778;9.166;2024-03-23T17:00:44;9.50;98.00
2913;DHT22;1466;48.778;9.166;2024-03-23T17:03:11;9.30;98.10
2913;DHT22;1466;48.778;9.166;2024-03-23T17:05:37;9.20;98.70
2913;DHT22;1466;48.778;9.166;2024-03-23T17:08:04;9.20;99.10